createdAt,value
2022-09-10T00:01:17.167Z,100.00
2022-09-10T00:03:48.317Z,100.00
2022-09-10T00:06:16.813Z,100.00
2022-09-10T00:08:44.610Z,100.00
2022-09-10T00:11:13.033Z,100.00
2022-09-10T00:13:41.817Z,100.00
2022-09-10T00:16:12.517Z,100.00
2022-09-10T00:18:40.908Z,100.00
2022-09-10T00:21:13.141Z,100.00
2022-09-10T00:23:40.988Z,100.00
2022-09-10T00:26:15.096Z,100.00
2022-09-10T00:28:44.034Z,100.00
2022-09-10T00:31:13.312Z,100.00
2022-09-10T00:33:42.776Z,100.00
2022-09-10T00:36:19.783Z,100.00
2022-09-10T00:38:47.924Z,100.00
2022-09-10T00:41:16.965Z,100.00
2022-09-10T00:43:54.550Z,100.00
2022-09-10T00:46:29.365Z,100.00
2022-09-10T00:48:59.513Z,100.00
2022-09-10T00:51:31.124Z,100.00
2022-09-10T00:54:00.105Z,100.00
2022-09-10T00:56:29.613Z,100.00
2022-09-10T00:58:57.902Z,100.00
2022-09-10T01:01:25.906Z,100.00
2022-09-10T01:03:55.296Z,100.00
2022-09-10T01:06:24.041Z,100.00
2022-09-10T01:08:53.497Z,100.00
2022-09-10T01:11:37.731Z,100.00
2022-09-10T01:14:29.469Z,100.00
2022-09-10T01:17:07.774Z,100.00
2022-09-10T01:20:00.615Z,100.00
2022-09-10T01:22:38.308Z,100.00
2022-09-10T01:25:20.670Z,100.00
2022-09-10T01:27:52.120Z,100.00
2022-09-10T01:30:24.067Z,100.00
2022-09-10T01:33:00.271Z,100.00
2022-09-10T01:35:32.465Z,100.00
2022-09-10T01:38:04.718Z,100.00
2022-09-10T01:40:35.113Z,100.00
2022-09-10T01:43:07.524Z,100.00
2022-09-10T01:45:43.011Z,100.00
2022-09-10T01:48:39.726Z,100.00
2022-09-10T01:51:15.880Z,100.00
2022-09-10T01:54:05.821Z,100.00
2022-09-10T01:56:41.931Z,100.00
2022-09-10T01:59:17.314Z,100.00
2022-09-10T02:01:50.446Z,100.00
2022-09-10T02:04:20.426Z,100.00
2022-09-10T02:06:50.101Z,100.00
2022-09-10T02:09:19.968Z,100.00
2022-09-10T02:11:49.265Z,100.00
2022-09-10T02:14:21.692Z,100.00
2022-09-10T02:16:54.672Z,100.00
2022-09-10T02:19:22.594Z,100.00
2022-09-10T02:21:50.686Z,100.00
2022-09-10T02:24:18.542Z,100.00
2022-09-10T02:26:47.257Z,100.00
2022-09-10T02:29:16.826Z,100.00
2022-09-10T02:31:47.425Z,100.00
2022-09-10T02:34:16.845Z,100.00
2022-09-10T02:36:44.581Z,100.00
2022-09-10T02:39:12.323Z,100.00
2022-09-10T02:41:41.542Z,100.00
2022-09-10T02:44:09.766Z,100.00
2022-09-10T02:46:38.293Z,100.00
2022-09-10T02:49:07.730Z,100.00
2022-09-10T02:51:36.958Z,100.00
2022-09-10T02:54:04.996Z,100.00
2022-09-10T02:56:32.817Z,100.00
2022-09-10T02:59:00.847Z,100.00
2022-09-10T03:01:28.977Z,100.00
2022-09-10T03:03:59.024Z,100.00
2022-09-10T03:06:28.751Z,100.00
2022-09-10T03:08:57.598Z,100.00
2022-09-10T03:11:27.402Z,100.00
2022-09-10T03:13:55.559Z,100.00
2022-09-10T03:16:23.931Z,100.00
2022-09-10T03:18:52.554Z,100.00
2022-09-10T03:21:22.438Z,100.00
2022-09-10T03:23:52.727Z,100.00
2022-09-10T03:26:22.337Z,100.00
2022-09-10T03:28:50.229Z,100.00
2022-09-10T03:31:19.149Z,100.00
2022-09-10T03:33:47.151Z,100.00
2022-09-10T03:36:15.073Z,100.00
2022-09-10T03:38:43.432Z,100.00
2022-09-10T03:41:12.707Z,100.00
2022-09-10T03:43:40.473Z,100.00
2022-09-10T03:46:08.362Z,100.00
2022-09-10T03:48:36.249Z,100.00
2022-09-10T03:51:04.529Z,100.00
2022-09-10T03:53:32.261Z,100.00
2022-09-10T03:56:00.083Z,100.00
2022-09-10T03:58:29.244Z,100.00
2022-09-10T04:00:57.016Z,100.00
2022-09-10T04:03:25.971Z,100.00
2022-09-10T04:05:53.723Z,100.00
2022-09-10T04:08:21.843Z,100.00
2022-09-10T04:10:49.715Z,100.00
2022-09-10T04:13:17.534Z,100.00
2022-09-10T04:15:47.064Z,100.00
2022-09-10T04:18:15.218Z,100.00
2022-09-10T04:20:43.577Z,100.00
2022-09-10T04:23:11.434Z,100.00
2022-09-10T04:25:39.236Z,100.00
2022-09-10T04:28:07.029Z,100.00
2022-09-10T04:30:34.789Z,100.00
2022-09-10T04:33:03.929Z,100.00
2022-09-10T04:35:31.653Z,100.00
2022-09-10T04:37:59.425Z,100.00
2022-09-10T04:40:27.991Z,100.00
2022-09-10T04:42:55.718Z,100.00
2022-09-10T04:45:23.440Z,100.00
2022-09-10T04:47:53.131Z,100.00
2022-09-10T04:50:22.904Z,100.00
2022-09-10T04:52:50.648Z,100.00
2022-09-10T04:55:18.559Z,100.00
2022-09-10T04:57:46.298Z,100.00
2022-09-10T05:00:14.697Z,100.00
2022-09-10T05:02:42.932Z,100.00
2022-09-10T05:05:10.677Z,100.00
2022-09-10T05:07:39.819Z,100.00
2022-09-10T05:10:10.547Z,100.00
2022-09-10T05:12:39.266Z,100.00
2022-09-10T05:15:08.235Z,100.00
2022-09-10T05:17:36.095Z,100.00
2022-09-10T05:20:06.575Z,100.00
2022-09-10T05:22:40.352Z,100.00
2022-09-10T05:25:10.664Z,100.00
2022-09-10T05:27:38.419Z,100.00
2022-09-10T05:30:07.436Z,100.00
2022-09-10T05:32:35.233Z,100.00
2022-09-10T05:35:04.880Z,100.00
2022-09-10T05:37:32.639Z,100.00
2022-09-10T05:40:00.647Z,100.00
2022-09-10T05:42:29.791Z,100.00
2022-09-10T05:44:57.563Z,100.00
2022-09-10T05:47:25.340Z,100.00
2022-09-10T05:49:53.099Z,100.00
2022-09-10T05:52:20.850Z,100.00
2022-09-10T05:54:48.649Z,100.00
2022-09-10T05:57:16.635Z,100.00
2022-09-10T05:59:46.232Z,100.00
2022-09-10T06:02:20.471Z,100.00
2022-09-10T06:04:51.062Z,100.00
2022-09-10T06:07:19.043Z,100.00
2022-09-10T06:09:46.796Z,100.00
2022-09-10T06:12:15.482Z,100.00
2022-09-10T06:14:43.322Z,100.00
2022-09-10T06:17:12.937Z,100.00
2022-09-10T06:19:40.903Z,100.00
2022-09-10T06:22:11.089Z,100.00
2022-09-10T06:24:38.864Z,100.00
2022-09-10T06:27:08.583Z,100.00
2022-09-10T06:29:37.161Z,100.00
2022-09-10T06:32:05.215Z,100.00
2022-09-10T06:34:35.822Z,100.00
2022-09-10T06:37:04.232Z,100.00
2022-09-10T06:39:31.983Z,100.00
2022-09-10T06:41:59.763Z,100.00
2022-09-10T06:44:29.289Z,100.00
2022-09-10T06:47:42.728Z,100.00
2022-09-10T06:49:47.378Z,100.00
2022-09-10T06:52:15.137Z,100.00
2022-09-10T06:54:42.878Z,100.00
2022-09-10T06:57:11.420Z,100.00
2022-09-10T06:59:39.240Z,100.00
2022-09-10T07:02:07.297Z,100.00
2022-09-10T07:04:35.201Z,100.00
2022-09-10T07:07:04.326Z,100.00
2022-09-10T07:09:32.058Z,100.00
2022-09-10T07:12:00.198Z,100.00
2022-09-10T07:14:28.098Z,100.00
2022-09-10T07:16:57.431Z,100.00
2022-09-10T07:19:25.463Z,100.00
2022-09-10T07:21:53.224Z,100.00
2022-09-10T07:24:22.309Z,100.00
2022-09-10T07:26:50.120Z,100.00
2022-09-10T07:29:19.126Z,100.00
2022-09-10T07:31:48.185Z,100.00
2022-09-10T07:34:16.393Z,100.00
2022-09-10T07:36:44.199Z,100.00
2022-09-10T07:39:12.027Z,100.00
2022-09-10T07:41:41.209Z,100.00
2022-09-10T07:44:08.998Z,100.00
2022-09-10T07:46:38.074Z,100.00
2022-09-10T07:49:06.220Z,100.00
2022-09-10T07:51:35.655Z,100.00
2022-09-10T07:54:03.388Z,100.00
2022-09-10T07:56:32.411Z,100.00
2022-09-10T07:59:02.685Z,100.00
2022-09-10T08:01:31.797Z,100.00
2022-09-10T08:04:00.423Z,100.00
2022-09-10T08:06:28.209Z,100.00
2022-09-10T08:08:56.165Z,100.00
2022-09-10T08:11:24.376Z,100.00
2022-09-10T08:13:53.967Z,100.00
2022-09-10T08:16:24.809Z,100.00
2022-09-10T08:18:52.909Z,100.00
2022-09-10T08:21:20.790Z,100.00
2022-09-10T08:23:50.911Z,100.00
2022-09-10T08:26:20.033Z,100.00
2022-09-10T08:28:47.946Z,100.00
2022-09-10T08:31:16.374Z,100.00
2022-09-10T08:33:50.502Z,100.00
2022-09-10T08:36:19.224Z,100.00
2022-09-10T08:38:47.487Z,100.00
2022-09-10T08:41:28.298Z,100.00
2022-09-10T08:44:00.477Z,100.00
2022-09-10T08:46:31.644Z,100.00
2022-09-10T08:49:12.532Z,100.00
2022-09-10T08:51:45.282Z,100.00
2022-09-10T08:54:17.546Z,99.75
2022-09-10T08:56:46.894Z,90.22
2022-09-10T08:59:22.381Z,90.84
2022-09-10T09:01:55.725Z,88.50
2022-09-10T09:04:35.145Z,89.26
2022-09-10T09:07:10.953Z,92.08
2022-09-10T09:09:38.766Z,93.64
2022-09-10T09:12:20.602Z,95.08
2022-09-10T09:14:59.352Z,94.82
2022-09-10T09:17:37.387Z,87.33
2022-09-10T09:20:18.034Z,87.94
2022-09-10T09:22:52.961Z,89.37
2022-09-10T09:25:27.263Z,88.56
2022-09-10T09:27:56.718Z,89.39
2022-09-10T09:30:28.426Z,86.48
2022-09-10T09:33:01.988Z,87.04
2022-09-10T09:35:34.743Z,81.37
2022-09-10T09:38:17.733Z,76.28
2022-09-10T09:40:49.618Z,75.28
2022-09-10T09:43:27.234Z,77.42
2022-09-10T09:45:55.137Z,76.72
2022-09-10T09:48:24.847Z,75.58
2022-09-10T09:50:56.289Z,74.74
2022-09-10T09:53:26.291Z,76.00
2022-09-10T09:55:56.374Z,77.65
2022-09-10T09:58:36.015Z,80.13
2022-09-10T10:01:23.714Z,84.53
2022-09-10T10:04:01.573Z,79.78
2022-09-10T10:06:33.516Z,82.09
2022-09-10T10:09:04.663Z,84.44
2022-09-10T10:11:53.781Z,84.54
2022-09-10T10:14:41.495Z,84.32
2022-09-10T10:17:33.404Z,84.51
2022-09-10T10:20:06.054Z,87.34
2022-09-10T10:22:35.974Z,85.98
2022-09-10T10:25:06.449Z,83.42
2022-09-10T10:27:37.012Z,84.84
2022-09-10T10:30:23.647Z,86.09
2022-09-10T10:32:56.007Z,85.25
2022-09-10T10:35:46.588Z,80.88
2022-09-10T10:38:37.544Z,78.49
2022-09-10T10:41:31.886Z,79.64
2022-09-10T10:44:18.344Z,80.98
2022-09-10T10:46:54.724Z,79.93
2022-09-10T10:49:33.043Z,76.49
2022-09-10T10:52:10.240Z,78.43
2022-09-10T10:55:00.007Z,76.44
2022-09-10T10:57:39.426Z,75.11
2022-09-10T11:00:11.057Z,77.07
2022-09-10T11:02:44.472Z,76.63
2022-09-10T11:05:21.793Z,75.92
2022-09-10T11:07:50.019Z,78.01
2022-09-10T11:10:24.384Z,79.97
2022-09-10T11:12:58.882Z,82.26
2022-09-10T11:15:33.489Z,82.70
2022-09-10T11:18:08.010Z,81.21
2022-09-10T11:20:42.490Z,82.59
2022-09-10T11:23:27.781Z,82.27
2022-09-10T11:26:03.585Z,83.50
2022-09-10T11:28:37.127Z,78.70
2022-09-10T11:31:14.200Z,76.34
2022-09-10T11:33:51.622Z,74.84
2022-09-10T11:36:26.301Z,77.34
2022-09-10T11:39:04.061Z,76.65
2022-09-10T11:41:35.282Z,76.78
2022-09-10T11:44:12.239Z,79.01
2022-09-10T11:46:44.485Z,80.72
2022-09-10T11:49:17.973Z,83.71
2022-09-10T11:51:48.045Z,84.45
2022-09-10T11:54:18.438Z,86.11
2022-09-10T11:57:00.171Z,86.49
2022-09-10T11:59:51.481Z,82.77
2022-09-10T12:02:44.453Z,78.83
2022-09-10T12:05:24.017Z,75.64
2022-09-10T12:08:01.459Z,75.78
2022-09-10T12:10:35.454Z,72.77
2022-09-10T12:13:10.030Z,71.93
2022-09-10T12:15:39.179Z,70.14
2022-09-10T12:18:14.875Z,67.17
2022-09-10T12:20:48.728Z,69.24
2022-09-10T12:23:19.481Z,66.76
2022-09-10T12:25:58.616Z,66.82
2022-09-10T12:29:02.754Z,65.47
2022-09-10T12:32:09.382Z,62.65
2022-09-10T12:34:39.309Z,63.74
2022-09-10T12:37:20.915Z,63.65
2022-09-10T12:39:49.597Z,61.87
2022-09-10T12:42:36.703Z,61.56
2022-09-10T12:45:04.866Z,63.50
2022-09-10T12:47:53.634Z,62.09
2022-09-10T12:50:32.422Z,62.93
2022-09-10T12:53:49.127Z,61.36
2022-09-10T12:56:41.301Z,64.55
2022-09-10T12:59:40.360Z,60.23
2022-09-10T13:02:21.598Z,60.42
2022-09-10T13:04:58.132Z,60.40
2022-09-10T13:07:36.924Z,63.23
2022-09-10T13:10:19.684Z,64.55
2022-09-10T13:12:51.688Z,64.83
2022-09-10T13:15:22.509Z,65.03
2022-09-10T13:18:26.763Z,66.44
2022-09-10T13:20:54.904Z,68.95
2022-09-10T13:23:48.723Z,69.88
2022-09-10T13:26:50.361Z,70.11
2022-09-10T13:29:32.561Z,70.13
2022-09-10T13:32:05.484Z,69.37
2022-09-10T13:35:04.247Z,70.84
2022-09-10T13:38:01.583Z,72.32
2022-09-10T13:40:45.649Z,74.07
2022-09-10T13:43:44.565Z,73.45
2022-09-10T13:46:21.825Z,73.50
2022-09-10T13:48:53.919Z,71.47
2022-09-10T13:51:31.071Z,71.71
2022-09-10T13:54:07.281Z,72.80
2022-09-10T13:56:38.871Z,73.95
2022-09-10T13:59:07.989Z,73.46
2022-09-10T14:01:49.849Z,74.23
2022-09-10T14:04:31.462Z,74.36
2022-09-10T14:07:06.808Z,75.00
2022-09-10T14:09:36.408Z,74.11
2022-09-10T14:12:09.652Z,75.42
2022-09-10T14:14:43.293Z,77.88
2022-09-10T14:17:16.637Z,81.03
2022-09-10T14:19:47.910Z,81.29
2022-09-10T14:22:22.353Z,80.52
2022-09-10T14:24:54.786Z,79.27
2022-09-10T14:27:31.056Z,80.43
2022-09-10T14:30:23.238Z,81.18
2022-09-10T14:32:51.873Z,79.29
2022-09-10T14:35:40.206Z,77.29
2022-09-10T14:38:23.071Z,77.41
2022-09-10T14:40:56.866Z,75.81
2022-09-10T14:43:31.925Z,76.01
2022-09-10T14:45:59.826Z,76.34
2022-09-10T14:48:36.974Z,77.54
2022-09-10T14:51:18.439Z,78.64
2022-09-10T14:53:50.656Z,78.32
2022-09-10T14:56:25.740Z,79.27
2022-09-10T14:59:00.234Z,78.57
2022-09-10T15:01:30.324Z,80.44
2022-09-10T15:03:59.252Z,96.38
2022-09-10T15:06:27.245Z,100.00
2022-09-10T15:08:56.758Z,100.00
2022-09-10T15:11:28.428Z,100.00
2022-09-10T15:13:59.355Z,100.00
2022-09-10T15:16:27.593Z,100.00
2022-09-10T15:18:55.473Z,100.00
2022-09-10T15:21:23.338Z,100.00
2022-09-10T15:23:51.126Z,100.00
2022-09-10T15:26:19.738Z,100.00
2022-09-10T15:28:47.501Z,100.00
2022-09-10T15:31:18.297Z,100.00
2022-09-10T15:33:46.265Z,100.00
2022-09-10T15:36:14.027Z,100.00
2022-09-10T15:38:41.808Z,100.00
2022-09-10T15:41:12.925Z,100.00
2022-09-10T15:43:43.512Z,100.00
2022-09-10T15:46:12.387Z,100.00
2022-09-10T15:48:41.678Z,100.00
2022-09-10T15:51:13.767Z,100.00
2022-09-10T15:53:42.140Z,100.00
2022-09-10T15:56:12.373Z,100.00
2022-09-10T15:58:40.512Z,100.00
2022-09-10T16:01:11.509Z,100.00
2022-09-10T16:03:45.472Z,100.00
2022-09-10T16:06:13.255Z,100.00
2022-09-10T16:08:41.319Z,100.00
2022-09-10T16:11:11.826Z,100.00
2022-09-10T16:13:40.004Z,100.00
2022-09-10T16:16:11.016Z,100.00
2022-09-10T16:18:38.975Z,100.00
2022-09-10T16:21:11.488Z,100.00
2022-09-10T16:23:41.196Z,100.00
2022-09-10T16:26:11.090Z,100.00
2022-09-10T16:28:38.928Z,100.00
2022-09-10T16:31:14.725Z,100.00
2022-09-10T16:33:43.053Z,100.00
2022-09-10T16:36:13.248Z,100.00
2022-09-10T16:38:41.915Z,100.00
2022-09-10T16:41:12.509Z,100.00
2022-09-10T16:43:41.593Z,100.00
2022-09-10T16:46:11.418Z,100.00
2022-09-10T16:48:41.030Z,100.00
2022-09-10T16:51:12.272Z,100.00
2022-09-10T16:53:42.566Z,100.00
2022-09-10T16:56:12.067Z,100.00
2022-09-10T16:58:41.396Z,100.00
2022-09-10T17:01:10.548Z,100.00
2022-09-10T17:03:41.922Z,100.00
2022-09-10T17:06:14.962Z,100.00
2022-09-10T17:08:45.167Z,100.00
2022-09-10T17:11:14.238Z,100.00
2022-09-10T17:13:42.537Z,100.00
2022-09-10T17:16:23.156Z,100.00
2022-09-10T17:18:56.075Z,100.00
2022-09-10T17:21:23.885Z,100.00
2022-09-10T17:23:53.551Z,100.00
2022-09-10T17:26:21.972Z,100.00
2022-09-10T17:28:54.321Z,100.00
2022-09-10T17:31:22.458Z,100.00
2022-09-10T17:33:50.356Z,100.00
2022-09-10T17:36:18.748Z,100.00
2022-09-10T17:38:47.333Z,100.00
2022-09-10T17:41:16.590Z,100.00
2022-09-10T17:43:44.803Z,100.00
2022-09-10T17:46:14.663Z,100.00
2022-09-10T17:48:44.682Z,100.00
2022-09-10T17:51:15.102Z,100.00
2022-09-10T17:53:43.429Z,100.00
2022-09-10T17:56:13.022Z,100.00
2022-09-10T17:58:42.814Z,100.00
2022-09-10T18:01:13.563Z,100.00
2022-09-10T18:03:42.488Z,100.00
2022-09-10T18:06:11.711Z,100.00
2022-09-10T18:08:41.607Z,100.00
2022-09-10T18:11:11.436Z,100.00
2022-09-10T18:13:39.370Z,100.00
2022-09-10T18:16:10.278Z,100.00
2022-09-10T18:18:39.337Z,100.00
2022-09-10T18:21:15.140Z,100.00
2022-09-10T18:23:44.437Z,100.00
2022-09-10T18:26:14.354Z,100.00
2022-09-10T18:28:45.196Z,100.00
2022-09-10T18:31:14.601Z,100.00
2022-09-10T18:33:42.474Z,100.00
2022-09-10T18:36:15.254Z,100.00
2022-09-10T18:38:43.322Z,100.00
2022-09-10T18:41:19.226Z,100.00
2022-09-10T18:43:47.327Z,100.00
2022-09-10T18:46:16.713Z,100.00
2022-09-10T18:48:46.837Z,100.00
2022-09-10T18:51:16.510Z,100.00
2022-09-10T18:53:45.617Z,100.00
2022-09-10T18:56:15.641Z,100.00
2022-09-10T18:58:48.561Z,100.00
2022-09-10T19:01:19.225Z,100.00
2022-09-10T19:03:49.082Z,100.00
2022-09-10T19:06:18.736Z,100.00
2022-09-10T19:08:52.652Z,100.00
2022-09-10T19:11:22.004Z,100.00
2022-09-10T19:13:51.465Z,100.00
2022-09-10T19:16:22.361Z,100.00
2022-09-10T19:18:51.287Z,100.00
2022-09-10T19:21:20.203Z,100.00
2022-09-10T19:23:49.603Z,100.00
2022-09-10T19:26:17.894Z,100.00
2022-09-10T19:28:47.731Z,100.00
2022-09-10T19:31:19.591Z,100.00
2022-09-10T19:33:49.376Z,100.00
2022-09-10T19:36:19.159Z,100.00
2022-09-10T19:38:47.432Z,100.00
2022-09-10T19:41:18.668Z,100.00
2022-09-10T19:43:47.742Z,100.00
2022-09-10T19:46:16.876Z,100.00
2022-09-10T19:48:46.624Z,100.00
2022-09-10T19:51:18.933Z,100.00
2022-09-10T19:53:47.324Z,100.00
2022-09-10T19:56:20.237Z,100.00
2022-09-10T19:58:50.697Z,100.00
2022-09-10T20:01:21.171Z,100.00
2022-09-10T20:03:50.707Z,100.00
2022-09-10T20:06:22.447Z,100.00
2022-09-10T20:08:50.729Z,100.00
2022-09-10T20:11:21.119Z,100.00
2022-09-10T20:13:49.420Z,100.00
2022-09-10T20:16:18.288Z,100.00
2022-09-10T20:18:46.658Z,100.00
2022-09-10T20:21:16.843Z,100.00
2022-09-10T20:23:47.811Z,100.00
2022-09-10T20:26:17.519Z,100.00
2022-09-10T20:28:45.850Z,100.00
2022-09-10T20:31:14.099Z,100.00
2022-09-10T20:33:43.474Z,100.00
2022-09-10T20:36:13.466Z,100.00
2022-09-10T20:38:41.609Z,100.00
2022-09-10T20:41:12.018Z,100.00
2022-09-10T20:43:40.622Z,100.00
2022-09-10T20:46:16.054Z,100.00
2022-09-10T20:48:48.877Z,100.00
2022-09-10T20:51:18.149Z,100.00
2022-09-10T20:53:46.538Z,100.00
2022-09-10T20:56:17.931Z,100.00
2022-09-10T20:58:46.951Z,100.00
2022-09-10T21:01:19.004Z,100.00
2022-09-10T21:03:48.226Z,100.00
2022-09-10T21:06:17.759Z,100.00
2022-09-10T21:08:45.543Z,100.00
2022-09-10T21:11:16.697Z,100.00
2022-09-10T21:13:46.545Z,100.00
2022-09-10T21:16:16.871Z,100.00
2022-09-10T21:18:53.592Z,100.00
2022-09-10T21:21:25.520Z,100.00
2022-09-10T21:23:54.962Z,100.00
2022-09-10T21:26:26.108Z,100.00
2022-09-10T21:28:55.964Z,100.00
2022-09-10T21:31:24.182Z,100.00
2022-09-10T21:33:53.196Z,100.00
2022-09-10T21:36:21.986Z,100.00
2022-09-10T21:38:51.207Z,100.00
2022-09-10T21:41:21.405Z,100.00
2022-09-10T21:43:50.532Z,100.00
2022-09-10T21:46:19.497Z,100.00
2022-09-10T21:48:47.346Z,100.00
2022-09-10T21:51:17.480Z,100.00
2022-09-10T21:53:45.830Z,100.00
2022-09-10T21:56:16.161Z,100.00
2022-09-10T21:58:45.325Z,100.00
2022-09-10T22:01:17.323Z,100.00
2022-09-10T22:03:46.646Z,100.00
2022-09-10T22:06:17.107Z,100.00
2022-09-10T22:08:46.695Z,100.00
2022-09-10T22:11:17.024Z,100.00
2022-09-10T22:13:46.133Z,100.00
2022-09-10T22:16:15.324Z,100.00
2022-09-10T22:18:43.358Z,100.00
2022-09-10T22:21:11.122Z,100.00
2022-09-10T22:23:40.571Z,100.00
2022-09-10T22:26:10.058Z,100.00
2022-09-10T22:28:38.553Z,100.00
2022-09-10T22:31:08.710Z,100.00
2022-09-10T22:33:39.116Z,100.00
2022-09-10T22:36:11.665Z,100.00
2022-09-10T22:38:39.758Z,100.00
2022-09-10T22:41:09.869Z,100.00
2022-09-10T22:43:38.766Z,100.00
2022-09-10T22:46:07.837Z,100.00
2022-09-10T22:48:38.516Z,100.00
2022-09-10T22:51:07.139Z,100.00
2022-09-10T22:53:35.041Z,100.00
2022-09-10T22:56:03.410Z,100.00
2022-09-10T22:58:32.943Z,100.00
2022-09-10T23:01:04.811Z,100.00
2022-09-10T23:03:32.629Z,100.00
2022-09-10T23:06:06.318Z,100.00
2022-09-10T23:08:36.109Z,100.00
2022-09-10T23:11:16.451Z,100.00
2022-09-10T23:13:46.373Z,100.00
2022-09-10T23:16:16.220Z,100.00
2022-09-10T23:18:48.396Z,100.00
2022-09-10T23:21:17.896Z,100.00
2022-09-10T23:23:46.689Z,100.00
2022-09-10T23:26:14.959Z,100.00
2022-09-10T23:28:43.244Z,100.00
2022-09-10T23:31:14.299Z,100.00
2022-09-10T23:33:43.594Z,100.00
2022-09-10T23:36:13.474Z,100.00
2022-09-10T23:38:43.812Z,100.00
2022-09-10T23:41:12.886Z,100.00
2022-09-10T23:43:41.221Z,100.00
2022-09-10T23:46:10.201Z,100.00
2022-09-10T23:48:38.920Z,100.00
2022-09-10T23:51:07.583Z,100.00
2022-09-10T23:53:35.527Z,100.00
2022-09-10T23:56:05.274Z,100.00
2022-09-10T23:58:33.577Z,100.00
